createdAt,value
2019-03-21T00:05:18.499Z,9.30
2019-03-21T00:07:48.707Z,9.20
2019-03-21T00:10:54.913Z,9.20
2019-03-21T00:13:25.159Z,9.20
2019-03-21T00:15:58.695Z,9.20
2019-03-21T00:18:28.880Z,9.20
2019-03-21T00:20:59.108Z,9.20
2019-03-21T00:23:29.275Z,9.30
2019-03-21T00:25:59.524Z,9.20
2019-03-21T00:28:29.728Z,9.20
2019-03-21T00:30:59.923Z,9.20
2019-03-21T00:33:30.185Z,9.20
2019-03-21T00:36:00.461Z,9.10
2019-03-21T00:38:30.655Z,9.10
2019-03-21T00:41:00.875Z,9.10
2019-03-21T00:43:31.141Z,9.10
2019-03-21T00:46:01.328Z,9.10
2019-03-21T00:48:31.576Z,9.10
2019-03-21T00:51:01.753Z,9.10
2019-03-21T00:53:31.985Z,9.10
2019-03-21T00:56:02.136Z,9.10
2019-03-21T00:58:32.372Z,9.10
2019-03-21T01:01:02.620Z,9.10
2019-03-21T01:03:32.861Z,9.10
2019-03-21T01:06:03.035Z,9.10
2019-03-21T01:08:33.392Z,9.10
2019-03-21T01:11:03.743Z,9.10
2019-03-21T01:13:35.350Z,9.10
2019-03-21T01:16:05.697Z,9.10
2019-03-21T01:18:36.345Z,9.00
2019-03-21T01:21:06.567Z,9.00
2019-03-21T01:23:36.735Z,9.00
2019-03-21T01:26:07.180Z,9.00
2019-03-21T01:28:37.355Z,8.90
2019-03-21T01:31:07.598Z,8.90
2019-03-21T01:33:37.788Z,8.90
2019-03-21T01:36:08.053Z,8.80
2019-03-21T01:38:38.234Z,8.90
2019-03-21T01:41:08.521Z,8.80
2019-03-21T01:43:38.752Z,8.80
2019-03-21T01:46:10.902Z,8.80
2019-03-21T01:48:42.690Z,8.80
2019-03-21T01:51:13.058Z,8.80
2019-03-21T01:53:43.298Z,8.80
2019-03-21T01:56:13.519Z,8.80
2019-03-21T01:58:43.774Z,8.70
2019-03-21T02:01:14.006Z,8.70
2019-03-21T02:03:44.148Z,8.70
2019-03-21T02:06:14.391Z,8.70
2019-03-21T02:08:44.556Z,8.70
2019-03-21T02:11:14.786Z,8.70
2019-03-21T02:13:45.019Z,8.70
2019-03-21T02:16:15.177Z,8.70
2019-03-21T02:18:45.405Z,8.70
2019-03-21T02:21:15.558Z,8.70
2019-03-21T02:23:45.803Z,8.70
2019-03-21T02:26:16.041Z,8.70
2019-03-21T02:28:46.273Z,8.70
2019-03-21T02:31:16.533Z,8.60
2019-03-21T02:33:46.768Z,8.70
2019-03-21T02:36:16.984Z,8.60
2019-03-21T02:38:47.217Z,8.60
2019-03-21T02:41:17.418Z,8.70
2019-03-21T02:43:47.647Z,8.60
2019-03-21T02:46:17.812Z,8.60
2019-03-21T02:48:48.102Z,8.60
2019-03-21T02:51:18.312Z,8.60
2019-03-21T02:53:48.663Z,8.60
2019-03-21T02:56:19.433Z,8.60
2019-03-21T02:58:49.690Z,8.60
2019-03-21T03:01:19.872Z,8.60
2019-03-21T03:03:50.103Z,8.60
2019-03-21T03:06:20.315Z,8.60
2019-03-21T03:08:50.956Z,8.50
2019-03-21T03:11:21.436Z,8.50
2019-03-21T03:13:51.835Z,8.50
2019-03-21T03:16:22.153Z,8.50
2019-03-21T03:18:52.330Z,8.60
2019-03-21T03:21:22.631Z,8.60
2019-03-21T03:23:52.817Z,8.60
2019-03-21T03:26:23.111Z,8.60
2019-03-21T03:28:53.341Z,8.60
2019-03-21T03:31:23.550Z,8.60
2019-03-21T03:33:54.221Z,8.60
2019-03-21T03:36:24.460Z,8.60
2019-03-21T03:38:54.684Z,8.60
2019-03-21T03:41:24.917Z,8.50
2019-03-21T03:43:55.196Z,8.60
2019-03-21T03:46:25.390Z,8.60
2019-03-21T03:48:55.635Z,8.60
2019-03-21T03:51:25.796Z,8.60
2019-03-21T03:53:56.064Z,8.70
2019-03-21T03:56:26.323Z,8.70
2019-03-21T03:58:56.818Z,8.80
2019-03-21T04:01:26.991Z,8.80
2019-03-21T04:03:57.557Z,8.80
2019-03-21T04:06:27.750Z,8.80
2019-03-21T04:08:57.999Z,8.80
2019-03-21T04:11:28.365Z,8.90
2019-03-21T04:13:58.589Z,8.90
2019-03-21T04:16:28.735Z,8.90
2019-03-21T04:18:59.072Z,8.90
2019-03-21T04:21:29.311Z,8.90
2019-03-21T04:24:00.152Z,8.90
2019-03-21T04:26:31.460Z,8.90
2019-03-21T04:29:01.728Z,8.90
2019-03-21T04:31:31.910Z,8.90
2019-03-21T04:34:03.660Z,8.90
2019-03-21T04:36:33.820Z,8.80
2019-03-21T04:39:05.793Z,8.80
2019-03-21T04:41:35.982Z,8.80
2019-03-21T04:44:06.181Z,8.80
2019-03-21T04:46:36.348Z,8.70
2019-03-21T04:49:06.622Z,8.70
2019-03-21T04:51:36.805Z,8.70
2019-03-21T04:54:07.013Z,8.70
2019-03-21T04:56:37.258Z,8.70
2019-03-21T04:59:07.399Z,8.70
2019-03-21T05:01:37.589Z,8.60
2019-03-21T05:04:07.859Z,8.60
2019-03-21T05:06:38.120Z,8.60
2019-03-21T05:09:11.518Z,8.60
2019-03-21T05:11:41.750Z,8.60
2019-03-21T05:14:12.002Z,8.60
2019-03-21T05:16:42.181Z,8.60
2019-03-21T05:19:12.412Z,8.60
2019-03-21T05:21:42.571Z,8.60
2019-03-21T05:24:12.793Z,8.60
2019-03-21T05:26:43.151Z,8.60
2019-03-21T05:29:13.436Z,8.60
2019-03-21T05:31:43.614Z,8.60
2019-03-21T05:34:14.631Z,8.60
2019-03-21T05:36:44.808Z,8.60
2019-03-21T05:39:15.028Z,8.60
2019-03-21T05:41:45.260Z,8.60
2019-03-21T05:44:25.993Z,8.60
2019-03-21T05:46:56.260Z,8.60
2019-03-21T05:49:26.436Z,8.70
2019-03-21T05:51:56.632Z,8.80
2019-03-21T05:54:26.845Z,8.80
2019-03-21T05:56:57.033Z,8.80
2019-03-21T05:59:27.247Z,8.90
2019-03-21T06:01:57.453Z,8.90
2019-03-21T06:04:27.705Z,8.90
2019-03-21T06:07:14.823Z,8.90
2019-03-21T06:09:45.046Z,8.90
2019-03-21T06:12:15.223Z,9.00
2019-03-21T06:14:49.989Z,9.00
2019-03-21T06:17:20.531Z,9.00
2019-03-21T06:20:22.708Z,9.00
2019-03-21T06:23:47.835Z,9.10
2019-03-21T06:26:43.671Z,9.10
2019-03-21T06:29:13.934Z,9.10
2019-03-21T06:31:44.169Z,9.20
2019-03-21T06:34:14.436Z,9.20
2019-03-21T06:36:44.686Z,9.20
2019-03-21T06:39:14.940Z,9.20
2019-03-21T06:41:45.206Z,9.30
2019-03-21T06:44:15.385Z,9.30
2019-03-21T06:46:49.772Z,9.30
2019-03-21T06:49:17.540Z,9.30
2019-03-21T06:51:47.791Z,9.30
2019-03-21T06:54:17.979Z,9.30
2019-03-21T06:56:48.404Z,9.40
2019-03-21T06:59:18.592Z,9.40
2019-03-21T07:01:48.807Z,9.40
2019-03-21T07:04:19.096Z,9.40
2019-03-21T07:06:49.315Z,9.50
2019-03-21T07:09:19.532Z,9.50
2019-03-21T07:11:49.703Z,9.50
2019-03-21T07:14:19.996Z,9.50
2019-03-21T07:17:00.121Z,9.50
2019-03-21T07:19:23.105Z,9.60
2019-03-21T07:21:53.306Z,9.60
2019-03-21T07:24:23.552Z,9.60
2019-03-21T07:26:53.859Z,9.70
2019-03-21T07:29:24.049Z,9.70
2019-03-21T07:31:54.277Z,9.70
2019-03-21T07:34:24.517Z,9.70
2019-03-21T07:36:54.742Z,9.80
2019-03-21T07:39:25.021Z,9.80
2019-03-21T07:41:55.276Z,9.80
2019-03-21T07:44:25.549Z,9.90
2019-03-21T07:46:55.835Z,9.90
2019-03-21T07:49:26.091Z,10.00
2019-03-21T07:51:56.336Z,10.00
2019-03-21T07:54:26.558Z,10.10
2019-03-21T07:56:56.778Z,10.10
2019-03-21T07:59:27.045Z,10.20
2019-03-21T08:01:57.243Z,10.20
2019-03-21T08:04:27.478Z,10.30
2019-03-21T08:06:57.919Z,10.30
2019-03-21T08:09:28.251Z,10.30
2019-03-21T08:11:58.612Z,10.40
2019-03-21T08:14:28.846Z,10.50
2019-03-21T08:16:59.659Z,10.50
2019-03-21T08:19:32.874Z,10.60
2019-03-21T08:22:03.144Z,10.60
2019-03-21T08:24:33.371Z,10.70
2019-03-21T08:27:03.691Z,10.80
2019-03-21T08:29:33.896Z,10.80
2019-03-21T08:32:04.113Z,10.90
2019-03-21T08:34:34.291Z,10.90
2019-03-21T08:37:04.519Z,11.00
2019-03-21T08:39:34.699Z,11.10
2019-03-21T08:42:04.958Z,11.20
2019-03-21T08:44:35.272Z,11.30
2019-03-21T08:47:05.580Z,11.30
2019-03-21T08:49:35.821Z,11.30
2019-03-21T08:52:06.009Z,11.30
2019-03-21T08:54:36.506Z,11.30
2019-03-21T09:04:08.639Z,11.40
2019-03-21T09:06:39.314Z,11.40
2019-03-21T09:09:10.461Z,11.40
2019-03-21T09:11:40.695Z,11.40
2019-03-21T09:14:11.606Z,11.40
2019-03-21T09:16:42.503Z,11.40
2019-03-21T09:19:12.740Z,11.40
2019-03-21T09:21:44.634Z,11.40
2019-03-21T09:24:17.193Z,11.50
2019-03-21T09:26:48.287Z,11.50
2019-03-21T09:29:18.641Z,11.50
2019-03-21T09:31:48.896Z,11.50
2019-03-21T09:34:19.302Z,11.50
2019-03-21T09:36:49.886Z,11.50
2019-03-21T09:39:20.102Z,11.50
2019-03-21T09:42:09.106Z,11.60
2019-03-21T09:44:39.362Z,11.70
2019-03-21T09:47:09.646Z,11.90
2019-03-21T09:49:46.071Z,12.00
2019-03-21T09:52:16.606Z,12.00
2019-03-21T09:54:46.849Z,12.00
2019-03-21T09:57:17.247Z,12.10
2019-03-21T09:59:47.622Z,12.10
2019-03-21T10:02:17.939Z,12.10
2019-03-21T10:04:58.262Z,12.20
2019-03-21T10:07:28.449Z,12.10
2019-03-21T10:09:58.817Z,12.10
2019-03-21T10:12:29.763Z,12.20
2019-03-21T10:15:00.124Z,12.20
2019-03-21T10:17:30.862Z,12.20
2019-03-21T10:20:01.133Z,12.20
2019-03-21T10:22:33.130Z,12.20
2019-03-21T10:25:03.891Z,12.20
2019-03-21T10:27:34.295Z,12.20
2019-03-21T10:30:05.142Z,12.10
2019-03-21T10:32:35.507Z,12.10
2019-03-21T10:35:06.098Z,12.10
2019-03-21T10:37:38.340Z,12.00
2019-03-21T10:40:08.867Z,12.00
2019-03-21T10:42:39.127Z,12.00
2019-03-21T10:45:09.963Z,12.10
2019-03-21T10:47:40.202Z,12.10
2019-03-21T10:50:12.161Z,12.10
2019-03-21T10:52:42.705Z,12.10
2019-03-21T10:55:12.964Z,12.10
2019-03-21T10:57:43.680Z,12.10
2019-03-21T11:00:14.238Z,12.10
2019-03-21T11:02:44.455Z,12.10
2019-03-21T11:05:14.861Z,12.10
2019-03-21T11:07:45.235Z,12.20
2019-03-21T11:10:15.672Z,12.20
2019-03-21T11:12:45.910Z,12.30
2019-03-21T11:15:16.365Z,12.30
2019-03-21T11:17:50.171Z,12.30
2019-03-21T11:20:39.911Z,12.30
2019-03-21T11:23:10.411Z,12.40
2019-03-21T11:25:40.626Z,12.40
2019-03-21T11:28:11.450Z,12.40
2019-03-21T11:30:43.102Z,12.40
2019-03-21T11:33:13.355Z,12.40
2019-03-21T11:35:43.991Z,12.40
2019-03-21T11:38:14.237Z,12.40
2019-03-21T11:40:44.481Z,12.40
2019-03-21T11:43:16.532Z,12.40
2019-03-21T11:45:47.857Z,12.50
2019-03-21T11:48:18.459Z,12.50
2019-03-21T11:50:48.687Z,12.60
2019-03-21T11:53:19.062Z,12.60
2019-03-21T11:55:49.294Z,12.70
2019-03-21T11:58:19.515Z,12.70
2019-03-21T12:00:50.165Z,12.80
2019-03-21T12:03:20.411Z,12.80
2019-03-21T12:05:50.645Z,12.90
2019-03-21T12:08:20.914Z,12.90
2019-03-21T12:10:51.154Z,12.90
2019-03-21T12:13:21.379Z,12.90
2019-03-21T12:15:51.596Z,12.90
2019-03-21T12:18:21.854Z,12.90
2019-03-21T12:20:52.047Z,13.00
2019-03-21T12:23:22.411Z,13.00
2019-03-21T12:25:52.636Z,13.00
2019-03-21T12:28:22.908Z,13.00
2019-03-21T12:30:53.157Z,13.00
2019-03-21T12:33:23.399Z,13.10
2019-03-21T12:35:53.636Z,13.20
2019-03-21T12:38:23.859Z,13.20
2019-03-21T12:40:54.108Z,13.30
2019-03-21T12:43:24.364Z,13.40
2019-03-21T12:45:54.843Z,13.50
2019-03-21T12:48:25.150Z,13.60
2019-03-21T12:50:55.348Z,13.60
2019-03-21T12:53:25.562Z,13.60
2019-03-21T12:55:55.788Z,13.50
2019-03-21T12:58:26.087Z,13.60
2019-03-21T13:00:56.288Z,13.60
2019-03-21T13:03:26.532Z,13.70
2019-03-21T13:05:56.708Z,13.80
2019-03-21T13:08:33.839Z,13.90
2019-03-21T13:11:00.919Z,13.90
2019-03-21T13:13:30.932Z,14.00
2019-03-21T13:16:01.466Z,14.10
2019-03-21T13:18:31.682Z,14.10
2019-03-21T13:21:01.920Z,14.20
2019-03-21T13:23:34.103Z,14.20
2019-03-21T13:26:04.842Z,14.20
2019-03-21T13:28:35.077Z,14.10
2019-03-21T13:31:05.287Z,14.10
2019-03-21T13:33:35.459Z,14.10
2019-03-21T13:36:06.477Z,14.20
2019-03-21T13:38:36.731Z,14.20
2019-03-21T13:41:07.402Z,14.20
2019-03-21T13:43:37.736Z,14.10
2019-03-21T13:46:07.945Z,14.20
2019-03-21T13:48:38.189Z,14.20
2019-03-21T13:51:08.373Z,14.20
2019-03-21T13:53:38.558Z,14.30
2019-03-21T13:56:08.901Z,14.20
2019-03-21T13:58:39.114Z,14.20
2019-03-21T14:01:09.380Z,14.20
2019-03-21T14:03:39.797Z,14.20
2019-03-21T14:06:09.999Z,14.10
2019-03-21T14:08:40.254Z,14.10
2019-03-21T14:11:10.463Z,14.10
2019-03-21T14:13:40.660Z,14.00
2019-03-21T14:16:10.868Z,14.00
2019-03-21T14:18:41.066Z,14.00
2019-03-21T14:21:11.246Z,13.90
2019-03-21T14:23:43.627Z,13.90
2019-03-21T14:30:01.441Z,14.00
2019-03-21T14:32:31.535Z,14.00
2019-03-21T14:35:01.862Z,14.00
2019-03-21T14:37:32.021Z,14.00
2019-03-21T14:40:03.307Z,13.90
2019-03-21T14:42:33.591Z,13.90
2019-03-21T14:45:03.786Z,14.00
2019-03-21T14:47:36.321Z,14.20
2019-03-21T14:50:08.831Z,14.10
2019-03-21T14:52:39.019Z,14.10
2019-03-21T14:55:09.921Z,14.00
2019-03-21T14:57:40.213Z,14.00
2019-03-21T15:00:12.960Z,14.00
2019-03-21T15:02:43.250Z,13.90
2019-03-21T15:05:13.659Z,13.80
2019-03-21T15:07:43.954Z,13.70
2019-03-21T15:10:14.972Z,13.60
2019-03-21T15:12:45.166Z,13.50
2019-03-21T15:15:18.619Z,13.40
2019-03-21T15:17:48.883Z,13.40
2019-03-21T15:20:19.075Z,13.20
2019-03-21T15:22:49.301Z,13.10
2019-03-21T15:25:19.527Z,13.00
2019-03-21T15:27:49.859Z,12.90
2019-03-21T15:30:21.163Z,12.90
2019-03-21T15:32:51.495Z,12.80
2019-03-21T15:35:21.918Z,12.70
2019-03-21T15:37:52.217Z,12.70
2019-03-21T15:40:22.565Z,12.60
2019-03-21T15:42:52.780Z,12.60
2019-03-21T15:45:23.954Z,12.50
2019-03-21T15:47:54.505Z,12.50
2019-03-21T15:50:32.842Z,12.40
2019-03-21T15:53:03.405Z,12.40
2019-03-21T15:55:33.795Z,12.40
2019-03-21T15:58:04.027Z,12.30
2019-03-21T16:00:38.855Z,12.30
2019-03-21T16:03:09.359Z,12.20
2019-03-21T16:05:39.974Z,12.20
2019-03-21T16:08:10.288Z,12.20
2019-03-21T16:10:40.512Z,12.10
2019-03-21T16:13:11.565Z,12.00
2019-03-21T16:15:41.878Z,12.00
2019-03-21T16:18:12.106Z,11.90
2019-03-21T16:20:42.419Z,11.80
2019-03-21T16:23:12.683Z,11.80
2019-03-21T16:25:42.916Z,11.70
2019-03-21T16:28:13.169Z,11.70
2019-03-21T16:30:43.374Z,11.60
2019-03-21T16:33:13.797Z,11.50
2019-03-21T16:35:44.110Z,11.40
2019-03-21T16:38:14.332Z,11.30
2019-03-21T16:40:44.539Z,11.20
2019-03-21T16:43:14.808Z,11.10
2019-03-21T16:45:45.015Z,10.90
2019-03-21T16:48:15.230Z,10.80
2019-03-21T16:50:45.548Z,10.60
2019-03-21T16:53:15.756Z,10.50
2019-03-21T16:55:46.154Z,10.40
2019-03-21T16:58:16.409Z,10.20
2019-03-21T17:00:46.580Z,10.10
2019-03-21T17:03:16.864Z,10.00
2019-03-21T17:05:47.853Z,9.80
2019-03-21T17:08:18.143Z,9.70
2019-03-21T17:10:48.340Z,9.50
2019-03-21T17:13:18.653Z,9.40
2019-03-21T17:15:48.860Z,9.20
2019-03-21T17:18:19.514Z,9.10
2019-03-21T17:20:51.056Z,9.00
2019-03-21T17:23:21.624Z,8.90
2019-03-21T17:25:51.805Z,8.80
2019-03-21T17:28:22.129Z,8.70
2019-03-21T17:30:52.418Z,8.60
2019-03-21T17:33:23.747Z,8.50
2019-03-21T17:35:53.948Z,8.30
2019-03-21T17:38:24.168Z,8.30
2019-03-21T17:40:54.369Z,8.10
2019-03-21T17:43:24.620Z,8.10
2019-03-21T17:45:54.927Z,7.90
2019-03-21T17:48:25.254Z,7.80
2019-03-21T17:50:55.442Z,7.80
2019-03-21T17:53:25.724Z,7.70
2019-03-21T17:55:56.048Z,7.50
2019-03-21T17:58:28.630Z,7.50
2019-03-21T18:01:03.836Z,7.40
2019-03-21T18:03:34.050Z,7.30
2019-03-21T18:06:04.340Z,7.20
2019-03-21T18:08:34.626Z,7.10
2019-03-21T18:11:05.092Z,7.00
2019-03-21T18:13:35.613Z,7.00
2019-03-21T18:16:07.058Z,6.90
2019-03-21T18:18:37.404Z,6.80
2019-03-21T18:21:07.621Z,6.80
2019-03-21T18:23:40.171Z,6.80
2019-03-21T18:26:10.352Z,6.70
2019-03-21T18:28:42.213Z,6.70
2019-03-21T18:31:12.422Z,6.60
2019-03-21T18:33:42.700Z,6.50
2019-03-21T18:36:12.867Z,6.40
2019-03-21T18:38:43.061Z,6.40
2019-03-21T18:41:13.772Z,6.40
2019-03-21T18:43:43.963Z,6.30
2019-03-21T18:46:14.488Z,6.30
2019-03-21T18:48:44.746Z,6.20
2019-03-21T18:51:15.492Z,6.20
2019-03-21T18:53:48.583Z,6.20
2019-03-21T18:56:22.561Z,6.20
2019-03-21T18:58:53.049Z,6.20
2019-03-21T19:01:23.280Z,6.10
2019-03-21T19:03:53.607Z,6.10
2019-03-21T19:06:23.859Z,6.00
2019-03-21T19:08:54.104Z,5.90
2019-03-21T19:11:24.452Z,5.80
2019-03-21T19:13:54.650Z,5.80
2019-03-21T19:16:24.938Z,5.80
2019-03-21T19:18:55.150Z,5.70
2019-03-21T19:21:25.381Z,5.70
2019-03-21T19:23:55.611Z,5.60
2019-03-21T19:26:25.974Z,5.50
2019-03-21T19:28:56.247Z,5.50
2019-03-21T19:31:26.493Z,5.50
2019-03-21T19:33:59.006Z,5.50
2019-03-21T19:36:29.337Z,5.40
2019-03-21T19:38:59.621Z,5.40
2019-03-21T19:41:30.000Z,5.40
2019-03-21T19:44:00.242Z,5.30
2019-03-21T19:46:30.715Z,5.20
2019-03-21T19:49:00.999Z,5.20
2019-03-21T19:51:31.346Z,5.20
2019-03-21T19:54:01.598Z,5.20
2019-03-21T19:56:32.997Z,5.20
2019-03-21T19:59:03.629Z,5.20
2019-03-21T20:01:33.857Z,5.10
2019-03-21T20:04:04.069Z,5.10
2019-03-21T20:06:34.324Z,5.00
2019-03-21T20:09:06.878Z,5.00
2019-03-21T20:11:38.175Z,5.00
2019-03-21T20:14:08.379Z,4.90
2019-03-21T20:16:38.638Z,4.80
2019-03-21T20:19:08.894Z,4.80
2019-03-21T20:21:47.914Z,4.70
2019-03-21T20:24:11.043Z,4.70
2019-03-21T20:26:41.304Z,4.70
2019-03-21T20:29:11.574Z,4.60
2019-03-21T20:31:42.150Z,4.60
2019-03-21T20:34:13.032Z,4.60
2019-03-21T20:36:43.436Z,4.50
2019-03-21T20:39:13.685Z,4.50
2019-03-21T20:41:43.931Z,4.50
2019-03-21T20:44:15.263Z,4.40
2019-03-21T20:46:46.049Z,4.40
2019-03-21T20:49:16.576Z,4.40
2019-03-21T20:51:46.829Z,4.30
2019-03-21T20:54:17.054Z,4.30
2019-03-21T20:56:47.565Z,4.30
2019-03-21T20:59:17.815Z,4.20
2019-03-21T21:01:48.103Z,4.20
2019-03-21T21:04:18.324Z,4.20
2019-03-21T21:06:48.557Z,4.20
2019-03-21T21:09:18.894Z,4.20
2019-03-21T21:11:49.232Z,4.10
2019-03-21T21:14:19.449Z,4.10
2019-03-21T21:16:49.908Z,4.10
2019-03-21T21:19:20.151Z,4.10
2019-03-21T21:21:50.831Z,4.10
2019-03-21T21:24:21.468Z,4.10
2019-03-21T21:26:51.700Z,4.10
2019-03-21T21:29:21.955Z,4.00
2019-03-21T21:31:52.302Z,4.00
2019-03-21T21:34:24.744Z,3.90
2019-03-21T21:36:55.005Z,3.90
2019-03-21T21:39:25.174Z,3.80
2019-03-21T21:41:55.471Z,3.80
2019-03-21T21:44:25.699Z,3.80
2019-03-21T21:46:55.971Z,3.70
2019-03-21T21:49:26.230Z,3.70
2019-03-21T21:51:56.530Z,3.70
2019-03-21T21:54:26.731Z,3.60
2019-03-21T21:56:56.997Z,3.60
2019-03-21T21:59:27.276Z,3.60
2019-03-21T22:01:57.512Z,3.60
2019-03-21T22:04:27.796Z,3.50
2019-03-21T22:06:58.016Z,3.50
2019-03-21T22:09:28.247Z,3.50
2019-03-21T22:11:58.494Z,3.50
2019-03-21T22:14:28.765Z,3.50
2019-03-21T22:16:59.041Z,3.50
2019-03-21T22:19:29.307Z,3.50
2019-03-21T22:22:00.564Z,3.40
2019-03-21T22:24:30.780Z,3.40
2019-03-21T22:27:01.030Z,3.30
2019-03-21T22:29:31.292Z,3.30
2019-03-21T22:32:01.493Z,3.30
2019-03-21T22:34:31.732Z,3.20
2019-03-21T22:37:01.972Z,3.20
2019-03-21T22:39:32.271Z,3.20
2019-03-21T22:42:02.634Z,3.20
2019-03-21T22:44:32.876Z,3.10
2019-03-21T22:47:03.075Z,3.10
2019-03-21T22:49:33.323Z,3.10
2019-03-21T22:52:03.548Z,3.10
2019-03-21T22:54:33.759Z,3.10
2019-03-21T22:57:04.072Z,3.00
2019-03-21T22:59:34.308Z,3.00
2019-03-21T23:02:04.754Z,3.00
2019-03-21T23:04:35.005Z,2.90
2019-03-21T23:07:05.236Z,2.90
2019-03-21T23:09:35.501Z,2.90
2019-03-21T23:12:05.725Z,2.90
2019-03-21T23:14:35.946Z,2.90
2019-03-21T23:17:06.221Z,2.80
2019-03-21T23:19:37.573Z,2.80
2019-03-21T23:22:07.821Z,2.80
2019-03-21T23:24:38.101Z,2.80
2019-03-21T23:27:08.380Z,2.70
2019-03-21T23:29:38.639Z,2.70
2019-03-21T23:32:08.854Z,2.70
2019-03-21T23:34:39.161Z,2.80
2019-03-21T23:37:09.393Z,2.70
2019-03-21T23:39:39.733Z,2.70
2019-03-21T23:42:09.962Z,2.60
2019-03-21T23:44:40.231Z,2.60
2019-03-21T23:47:10.459Z,2.50
2019-03-21T23:49:40.723Z,2.50
2019-03-21T23:52:10.943Z,2.50
2019-03-21T23:54:41.199Z,2.50
2019-03-21T23:57:11.478Z,2.50
2019-03-21T23:59:41.744Z,2.40
